Time;durP1;ratioP1;P1;durP2;ratioP2;P2;SDS_P1;SDS_P2;PMS_P1;PMS_P2;Temp;Humidity;BMP_temperature;BMP_pressure;BME280_temperature;BME280_humidity;BME280_pressure;Samples;Min_cycle;Max_cycle;Signal;HPM_P1;HPM_P2
2022/01/20 00:01:09;;;;;;;5.57;4.68;;;5.30;99.90;;;;;;5086826;28;20284;-50
2022/01/20 00:03:41;;;;;;;6.82;4.30;;;5.30;99.90;;;;;;5082332;28;20769;-50
2022/01/20 00:06:57;;;;;;;7.80;6.40;;;5.30;99.90;;;;;;5086437;28;20707;-51
2022/01/20 00:09:34;;;;;;;6.22;5.47;;;5.30;99.90;;;;;;5087675;28;20275;-51
2022/01/20 00:23:28;;;;;;;7.90;4.50;;;5.30;99.90;;;;;;5082726;28;20612;-51
2022/01/20 00:26:01;;;;;;;5.68;3.90;;;5.30;99.90;;;;;;5077832;28;20219;-51
2022/01/20 00:28:40;;;;;;;4.50;3.88;;;5.30;99.90;;;;;;5083137;28;20306;-51
2022/01/20 00:31:26;;;;;;;8.40;4.22;;;5.30;99.90;;;;;;5075218;28;20214;-50
2022/01/20 00:34:08;;;;;;;5.07;3.42;;;5.30;99.90;;;;;;5077323;28;20229;-50
2022/01/20 00:39:24;;;;;;;7.07;3.85;;;5.30;99.90;;;;;;5104680;28;20221;-52
2022/01/20 00:41:52;;;;;;;7.63;4.53;;;5.30;99.90;;;;;;5077398;28;20546;-50
2022/01/20 00:44:20;;;;;;;7.30;4.65;;;5.30;99.90;;;;;;5086053;28;20298;-51
2022/01/20 00:46:48;;;;;;;7.70;4.05;;;5.30;99.90;;;;;;5085653;28;20533;-52
2022/01/20 00:49:16;;;;;;;8.40;4.03;;;5.30;99.90;;;;;;5080792;28;20662;-51
2022/01/20 00:51:47;;;;;;;5.22;3.92;;;5.30;99.90;;;;;;5085951;28;20757;-50
2022/01/20 00:54:19;;;;;;;6.25;4.00;;;5.30;99.90;;;;;;5085499;28;20279;-51
2022/01/20 00:56:47;;;;;;;5.05;3.40;;;5.30;99.90;;;;;;5087455;28;20264;-51
2022/01/20 00:59:15;;;;;;;5.22;3.35;;;5.30;99.90;;;;;;5086867;28;20227;-52
2022/01/20 01:01:44;;;;;;;6.40;3.63;;;5.30;99.90;;;;;;5097641;28;20286;-51
2022/01/20 01:04:13;;;;;;;6.38;4.85;;;5.30;99.90;;;;;;5081247;28;21615;-50
2022/01/20 01:06:57;;;;;;;6.13;3.90;;;5.30;99.90;;;;;;5092735;28;20285;-51
2022/01/20 01:09:28;;;;;;;5.45;3.63;;;5.30;99.90;;;;;;5095354;28;20225;-52
2022/01/20 01:12:02;;;;;;;5.00;3.63;;;5.30;99.90;;;;;;5097227;28;20704;-50
2022/01/20 01:14:32;;;;;;;4.93;3.15;;;5.30;99.90;;;;;;5106885;28;20240;-52
2022/01/20 01:22:32;;;;;;;7.85;4.25;;;5.30;99.90;;;;;;5077823;28;20229;-51
2022/01/20 01:25:02;;;;;;;6.63;3.80;;;5.30;99.90;;;;;;5088319;28;20601;-51
2022/01/20 01:27:34;;;;;;;11.18;3.30;;;5.30;99.90;;;;;;5073083;28;20180;-50
2022/01/20 01:30:19;;;;;;;6.95;3.40;;;5.30;99.90;;;;;;5110982;28;20221;-51
2022/01/20 01:32:51;;;;;;;4.47;2.95;;;5.30;99.90;;;;;;5085128;28;20206;-51
2022/01/20 01:35:22;;;;;;;9.20;3.97;;;5.30;99.90;;;;;;5105785;28;20697;-51
2022/01/20 01:40:42;;;;;;;4.80;3.85;;;5.30;99.90;;;;;;5084636;28;20220;-51
2022/01/20 01:43:19;;;;;;;6.57;3.85;;;5.30;99.90;;;;;;5082977;28;20199;-51
2022/01/20 01:45:48;;;;;;;5.65;3.28;;;5.30;99.90;;;;;;5108008;28;20223;-50
2022/01/20 01:48:18;;;;;;;11.10;4.30;;;5.30;99.90;;;;;;5071831;28;20265;-51
2022/01/20 01:50:47;;;;;;;5.30;3.28;;;5.30;99.90;;;;;;5105680;28;20221;-52
2022/01/20 01:53:18;;;;;;;3.38;2.92;;;5.30;99.90;;;;;;5102555;28;20196;-51
2022/01/20 01:55:47;;;;;;;4.53;3.03;;;5.30;99.90;;;;;;5075749;28;20313;-51
2022/01/20 01:58:16;;;;;;;4.30;2.63;;;5.30;99.90;;;;;;5092180;28;20310;-51
2022/01/20 02:01:02;;;;;;;8.75;3.75;;;5.30;99.90;;;;;;5072011;28;20253;-52
2022/01/20 02:03:34;;;;;;;6.10;2.88;;;5.30;99.90;;;;;;5069568;28;20685;-51
2022/01/20 02:06:25;;;;;;;6.10;4.05;;;5.30;99.90;;;;;;5076568;28;20209;-51
2022/01/20 02:09:01;;;;;;;8.52;3.17;;;5.30;99.90;;;;;;5093436;28;20620;-51
2022/01/20 02:19:56;;;;;;;4.82;2.85;;;5.30;99.90;;;;;;5083335;28;20271;-50
2022/01/20 02:22:32;;;;;;;6.43;3.53;;;5.30;99.90;;;;;;5092413;28;20221;-51
2022/01/20 02:25:23;;;;;;;6.95;3.30;;;5.30;99.90;;;;;;5076462;28;20227;-50
2022/01/20 02:27:51;;;;;;;7.95;3.10;;;5.30;99.90;;;;;;5068238;28;20199;-50
2022/01/20 02:30:22;;;;;;;5.30;2.88;;;5.30;99.90;;;;;;5083344;28;20275;-51
2022/01/20 02:32:55;;;;;;;7.97;3.00;;;5.30;99.90;;;;;;5091469;28;20244;-50
2022/01/20 02:35:27;;;;;;;6.40;3.15;;;5.30;99.90;;;;;;5069583;28;20219;-51
2022/01/20 02:38:00;;;;;;;8.45;2.92;;;5.30;99.90;;;;;;5069799;28;20770;-50
2022/01/20 02:44:49;;;;;;;6.80;2.92;;;5.30;99.90;;;;;;5085107;28;20226;-51
2022/01/20 02:46:08;;;;;;;6.53;2.80;;;5.30;99.90;;;;;;5069571;28;20570;-51
2022/01/20 02:48:38;;;;;;;6.53;2.90;;;5.30;99.90;;;;;;5096581;28;20580;-50
2022/01/20 02:51:08;;;;;;;8.85;3.40;;;5.30;99.90;;;;;;5096185;28;20226;-51
2022/01/20 02:53:37;;;;;;;4.93;2.50;;;5.30;99.90;;;;;;5051152;22;20730;-70
2022/01/20 02:56:06;;;;;;;6.70;2.60;;;5.30;99.90;;;;;;5016134;28;20283;-70
2022/01/20 02:58:34;;;;;;;6.35;3.13;;;5.30;99.90;;;;;;5017153;28;20210;-70
2022/01/20 03:01:03;;;;;;;5.68;2.75;;;5.30;99.90;;;;;;5011727;28;20316;-70
2022/01/20 03:03:32;;;;;;;7.13;3.00;;;5.30;99.90;;;;;;4998938;28;20200;-70
2022/01/20 03:06:00;;;;;;;4.25;3.22;;;5.30;99.90;;;;;;5028209;28;20229;-70
2022/01/20 03:08:29;;;;;;;3.50;2.90;;;5.30;99.90;;;;;;5028970;28;20564;-70
2022/01/20 03:10:58;;;;;;;4.65;2.75;;;5.30;99.90;;;;;;5019000;28;20643;-70
2022/01/20 03:13:26;;;;;;;11.43;2.22;;;5.30;99.90;;;;;;5024875;28;20678;-70
2022/01/20 03:15:54;;;;;;;3.70;2.05;;;5.30;99.90;;;;;;5028105;28;20226;-70
2022/01/20 03:18:22;;;;;;;4.15;2.22;;;5.30;99.90;;;;;;5022475;28;20580;-70
2022/01/20 03:20:50;;;;;;;2.88;2.67;;;5.30;99.90;;;;;;5035571;28;20221;-70
2022/01/20 03:23:18;;;;;;;4.95;2.92;;;5.30;99.90;;;;;;5014065;28;20610;-70
2022/01/20 03:25:47;;;;;;;7.63;2.95;;;5.30;99.90;;;;;;5013380;28;20279;-70
2022/01/20 03:28:16;;;;;;;4.60;2.28;;;5.30;99.90;;;;;;5009195;28;20245;-70
2022/01/20 03:30:44;;;;;;;5.30;2.60;;;5.30;99.90;;;;;;5000406;28;20695;-70
2022/01/20 03:33:12;;;;;;;6.22;2.67;;;5.30;99.90;;;;;;5009925;28;20213;-70
2022/01/20 03:35:41;;;;;;;2.72;2.20;;;5.30;99.90;;;;;;5024314;28;20239;-70
2022/01/20 03:38:41;;;;;;;5.05;2.50;;;5.30;99.90;;;;;;4998477;28;20251;-70
2022/01/20 03:41:11;;;;;;;4.97;2.72;;;5.30;99.90;;;;;;5024305;28;20687;-70
2022/01/20 03:43:39;;;;;;;7.35;2.53;;;5.30;99.90;;;;;;5025949;28;20202;-70
2022/01/20 03:46:12;;;;;;;6.20;2.30;;;5.30;99.90;;;;;;5023146;28;20228;-70
2022/01/20 03:48:49;;;;;;;5.30;2.72;;;5.30;99.90;;;;;;5022279;28;20252;-70
2022/01/20 03:51:21;;;;;;;3.78;2.17;;;5.30;99.90;;;;;;5010388;28;20248;-70
2022/01/20 03:53:50;;;;;;;3.05;2.50;;;5.30;99.90;;;;;;5033203;28;20193;-70
2022/01/20 03:56:22;;;;;;;7.53;2.28;;;5.30;99.90;;;;;;5025034;28;20688;-70
2022/01/20 03:59:09;;;;;;;4.05;2.38;;;5.30;99.90;;;;;;5008048;28;20292;-70
2022/01/20 04:01:37;;;;;;;4.38;2.38;;;5.30;99.90;;;;;;5027674;28;20196;-70
2022/01/20 04:04:24;;;;;;;3.70;2.42;;;5.30;99.90;;;;;;5021858;28;20586;-70
2022/01/20 04:07:07;;;;;;;7.35;2.55;;;5.30;99.90;;;;;;5021268;28;20717;-70
2022/01/20 04:09:35;;;;;;;3.08;1.77;;;5.30;99.90;;;;;;5018221;28;20225;-70
2022/01/20 04:12:05;;;;;;;5.47;2.25;;;5.30;99.90;;;;;;5012703;28;20675;-70
2022/01/20 04:14:34;;;;;;;2.90;2.03;;;5.30;99.90;;;;;;5014105;28;20233;-70
2022/01/20 04:17:06;;;;;;;8.15;2.83;;;5.30;99.90;;;;;;5006203;28;20752;-70
2022/01/20 04:19:35;;;;;;;3.90;2.28;;;5.30;99.90;;;;;;5032413;28;20214;-70
2022/01/20 04:22:05;;;;;;;9.35;2.40;;;5.30;99.90;;;;;;5016852;28;20259;-70
2022/01/20 04:24:33;;;;;;;4.05;2.45;;;5.30;99.90;;;;;;5033077;28;20221;-70
2022/01/20 04:27:01;;;;;;;3.47;2.50;;;5.30;99.90;;;;;;5018159;28;20752;-70
2022/01/20 04:29:34;;;;;;;6.07;2.67;;;5.30;99.90;;;;;;5044233;28;20254;-70
2022/01/20 04:32:04;;;;;;;2.38;1.70;;;5.30;99.90;;;;;;5007318;28;20202;-70
2022/01/20 04:34:32;;;;;;;6.50;2.55;;;5.30;99.90;;;;;;5030807;28;20304;-70
2022/01/20 04:37:04;;;;;;;3.40;2.30;;;5.30;99.90;;;;;;5027629;28;20225;-70
2022/01/20 04:39:36;;;;;;;5.85;2.33;;;5.30;99.90;;;;;;5028602;28;20222;-70
2022/01/20 04:42:06;;;;;;;5.60;2.50;;;5.30;99.90;;;;;;5022143;28;20567;-70
2022/01/20 04:44:42;;;;;;;4.25;2.15;;;5.30;99.90;;;;;;5021404;28;20222;-70
2022/01/20 04:47:22;;;;;;;4.60;3.28;;;5.30;99.90;;;;;;5021687;28;20230;-70
2022/01/20 04:58:04;;;;;;;3.08;1.42;;;5.20;99.90;;;;;;5039843;28;20330;-70
2022/01/20 05:00:35;;;;;;;2.80;1.88;;;5.20;99.90;;;;;;5028029;28;20225;-70
2022/01/20 05:03:24;;;;;;;2.75;1.95;;;5.30;99.90;;;;;;5028625;28;20197;-70
2022/01/20 05:05:53;;;;;;;5.38;2.70;;;5.20;99.90;;;;;;5013768;28;20300;-70
2022/01/20 05:08:24;;;;;;;7.57;3.55;;;5.30;99.90;;;;;;5025028;28;20229;-70
2022/01/20 05:11:00;;;;;;;3.25;1.88;;;5.30;99.90;;;;;;5030517;28;20248;-70
2022/01/20 05:13:33;;;;;;;3.10;2.33;;;5.30;99.90;;;;;;5031027;28;20217;-70
2022/01/20 05:16:03;;;;;;;2.45;1.90;;;5.30;99.90;;;;;;5011537;28;20229;-70
2022/01/20 05:18:32;;;;;;;7.93;2.20;;;5.30;99.90;;;;;;5025376;28;20728;-70
2022/01/20 05:21:00;;;;;;;6.78;2.22;;;5.20;99.90;;;;;;5021583;28;20329;-70
2022/01/20 05:23:28;;;;;;;3.53;2.53;;;5.20;99.90;;;;;;5040800;28;20190;-70
2022/01/20 05:25:57;;;;;;;4.43;1.77;;;5.20;99.90;;;;;;5005206;28;20217;-70
2022/01/20 05:28:26;;;;;;;4.18;1.98;;;5.20;99.90;;;;;;5041644;28;20626;-70
2022/01/20 05:30:54;;;;;;;6.50;2.20;;;5.20;99.90;;;;;;5028349;28;20221;-70
2022/01/20 05:33:29;;;;;;;4.45;2.65;;;5.20;99.90;;;;;;5006227;28;20186;-70
2022/01/20 05:35:58;;;;;;;3.10;2.22;;;5.20;99.90;;;;;;5028189;28;20268;-70
2022/01/20 05:38:26;;;;;;;5.13;2.40;;;5.20;99.90;;;;;;5033556;28;20223;-70
2022/01/20 05:40:55;;;;;;;4.93;2.38;;;5.20;99.90;;;;;;5017185;28;20222;-70
2022/01/20 05:43:23;;;;;;;5.93;1.83;;;5.20;99.90;;;;;;5021482;28;20659;-70
2022/01/20 05:45:52;;;;;;;2.55;2.35;;;5.20;99.90;;;;;;5028961;28;20262;-70
2022/01/20 05:48:32;;;;;;;7.55;2.10;;;5.20;99.90;;;;;;5009952;28;20218;-70
2022/01/20 05:51:21;;;;;;;3.78;2.20;;;5.20;99.90;;;;;;5009065;28;20357;-70
2022/01/20 05:53:49;;;;;;;2.67;2.13;;;5.20;99.90;;;;;;5042439;28;20213;-70
2022/01/20 05:56:17;;;;;;;5.82;3.00;;;5.30;99.90;;;;;;5039791;28;20412;-70
2022/01/20 05:58:45;;;;;;;3.65;2.17;;;5.20;99.90;;;;;;5016714;28;20221;-70
2022/01/20 06:01:16;;;;;;;4.22;2.50;;;5.30;99.90;;;;;;5028715;28;20217;-70
2022/01/20 06:03:45;;;;;;;4.18;2.30;;;5.20;99.90;;;;;;5039246;28;20247;-70
2022/01/20 06:06:21;;;;;;;4.38;2.30;;;5.20;99.90;;;;;;5015775;28;20699;-70
2022/01/20 06:08:51;;;;;;;4.63;2.15;;;5.20;99.90;;;;;;5011671;28;20218;-70
2022/01/20 06:11:19;;;;;;;6.20;2.00;;;5.30;99.90;;;;;;5039639;28;20218;-70
2022/01/20 06:13:49;;;;;;;4.25;1.75;;;5.30;99.90;;;;;;5016916;28;20197;-70
2022/01/20 06:16:18;;;;;;;5.78;2.63;;;5.20;99.90;;;;;;5037466;28;20227;-70
2022/01/20 06:18:46;;;;;;;6.88;2.90;;;5.20;99.90;;;;;;5031560;28;20223;-70
2022/01/20 06:21:15;;;;;;;2.95;2.38;;;5.30;99.90;;;;;;5014350;28;20304;-70
2022/01/20 06:23:45;;;;;;;4.93;1.85;;;5.20;99.90;;;;;;5029443;28;20274;-70
2022/01/20 06:26:14;;;;;;;6.45;2.72;;;5.20;99.90;;;;;;5031350;28;20614;-70
2022/01/20 06:28:43;;;;;;;5.93;2.15;;;5.20;99.90;;;;;;5039835;28;20307;-70
2022/01/20 06:31:12;;;;;;;4.28;2.30;;;5.20;99.90;;;;;;5028816;28;20677;-70
2022/01/20 06:33:41;;;;;;;3.60;2.10;;;5.20;99.90;;;;;;5033891;28;20193;-70
2022/01/20 06:36:11;;;;;;;5.82;2.22;;;5.30;99.90;;;;;;5026379;28;20220;-70
2022/01/20 06:38:39;;;;;;;4.25;2.60;;;5.20;99.90;;;;;;5014794;28;20202;-70
2022/01/20 06:41:09;;;;;;;2.20;1.50;;;5.30;99.90;;;;;;5016552;28;20287;-70
2022/01/20 06:43:37;;;;;;;4.43;1.48;;;5.20;99.90;;;;;;5017145;28;20655;-70
2022/01/20 06:46:07;;;;;;;6.00;2.00;;;5.20;99.90;;;;;;5020196;28;20247;-70
2022/01/20 06:48:50;;;;;;;2.85;2.08;;;5.20;99.90;;;;;;5034538;28;20307;-70
2022/01/20 06:51:32;;;;;;;3.78;1.70;;;5.20;99.90;;;;;;5024777;28;20243;-70
2022/01/20 06:54:02;;;;;;;3.75;1.80;;;5.20;99.90;;;;;;5009357;28;20237;-70
2022/01/20 06:56:32;;;;;;;3.90;1.70;;;5.30;99.90;;;;;;5009692;28;20205;-70
2022/01/20 06:59:16;;;;;;;4.13;2.20;;;5.20;99.90;;;;;;5031030;28;20274;-70
2022/01/20 07:01:45;;;;;;;2.05;1.83;;;5.20;99.90;;;;;;5023158;28;20199;-70
2022/01/20 07:04:20;;;;;;;3.95;2.17;;;5.20;99.90;;;;;;5025704;28;20671;-70
2022/01/20 07:06:48;;;;;;;4.57;1.83;;;5.20;99.90;;;;;;5026171;28;20593;-70
2022/01/20 07:09:51;;;;;;;1.75;1.63;;;5.20;99.90;;;;;;5016203;28;20256;-70
2022/01/20 07:12:42;;;;;;;4.38;2.15;;;5.20;99.90;;;;;;5022631;28;20701;-70
2022/01/20 07:15:13;;;;;;;3.25;1.60;;;5.30;99.90;;;;;;5013062;28;20224;-70
2022/01/20 07:17:42;;;;;;;5.63;2.60;;;5.20;99.90;;;;;;5005435;28;20222;-70
2022/01/20 07:20:12;;;;;;;5.13;2.67;;;5.20;99.90;;;;;;4996737;28;20671;-70
2022/01/20 07:22:53;;;;;;;4.65;2.42;;;5.20;99.90;;;;;;5015527;28;20197;-70
2022/01/20 07:25:24;;;;;;;2.22;2.03;;;5.20;99.90;;;;;;5018382;28;20217;-70
2022/01/20 07:27:55;;;;;;;2.88;1.85;;;5.20;99.90;;;;;;5013662;28;20587;-70
2022/01/20 07:30:33;;;;;;;4.30;2.15;;;5.20;99.90;;;;;;5024803;28;20233;-70
2022/01/20 07:33:03;;;;;;;3.13;2.08;;;5.20;99.90;;;;;;5009875;28;20221;-70
2022/01/20 07:35:36;;;;;;;4.63;2.08;;;5.20;99.90;;;;;;5025352;28;20221;-70
2022/01/20 07:38:04;;;;;;;3.50;1.92;;;5.20;99.90;;;;;;5025265;28;20225;-70
2022/01/20 07:40:34;;;;;;;3.50;1.58;;;5.20;99.90;;;;;;5006482;28;20313;-70
2022/01/20 07:43:04;;;;;;;3.42;1.85;;;5.20;99.90;;;;;;5023243;28;20212;-70
2022/01/20 07:45:47;;;;;;;4.40;2.53;;;5.20;99.90;;;;;;5008065;28;20233;-70
2022/01/20 07:48:42;;;;;;;4.60;1.65;;;5.20;99.90;;;;;;5008401;28;20251;-70
2022/01/20 07:51:16;;;;;;;5.05;2.15;;;5.20;99.90;;;;;;5008202;28;20596;-70
2022/01/20 07:53:45;;;;;;;6.07;2.25;;;5.20;99.90;;;;;;5032631;28;20291;-70
2022/01/20 07:56:14;;;;;;;3.42;1.73;;;5.20;99.90;;;;;;5030498;28;20226;-70
2022/01/20 07:58:44;;;;;;;2.65;2.00;;;5.20;99.90;;;;;;5026845;28;20224;-70
2022/01/20 08:01:12;;;;;;;4.22;2.20;;;5.20;99.90;;;;;;5033127;28;20229;-70
2022/01/20 08:03:54;;;;;;;4.20;2.17;;;5.20;99.90;;;;;;5011850;28;20190;-70
2022/01/20 08:06:25;;;;;;;2.33;1.80;;;5.20;99.90;;;;;;5009105;28;20256;-70
2022/01/20 08:09:04;;;;;;;4.57;1.98;;;5.20;99.90;;;;;;5008527;28;20280;-70
2022/01/20 08:11:40;;;;;;;7.65;2.40;;;5.20;99.90;;;;;;5038022;28;20192;-70
2022/01/20 08:14:25;;;;;;;7.60;2.30;;;5.20;99.90;;;;;;5009211;28;20308;-70
2022/01/20 08:16:53;;;;;;;2.53;1.83;;;5.20;99.90;;;;;;5013081;28;20703;-70
2022/01/20 08:19:23;;;;;;;3.53;1.98;;;5.20;99.90;;;;;;5015884;28;20221;-70
2022/01/20 08:21:51;;;;;;;3.90;2.10;;;5.20;99.90;;;;;;5017602;28;20193;-70
2022/01/20 08:24:19;;;;;;;3.90;3.15;;;5.20;99.90;;;;;;5011869;28;20232;-70
2022/01/20 08:26:47;;;;;;;1.65;1.55;;;5.20;99.90;;;;;;5026157;28;20603;-70
2022/01/20 08:29:16;;;;;;;3.72;1.92;;;5.20;99.90;;;;;;5030254;28;20243;-70
2022/01/20 08:31:46;;;;;;;3.00;1.83;;;5.20;99.90;;;;;;4999759;28;20195;-70
2022/01/20 08:34:28;;;;;;;2.83;1.80;;;5.20;99.90;;;;;;5046202;28;20231;-70
2022/01/20 08:37:19;;;;;;;2.20;1.85;;;5.20;99.90;;;;;;5026407;28;20223;-70
2022/01/20 08:39:48;;;;;;;2.95;1.55;;;5.20;99.90;;;;;;5023275;28;20228;-70
2022/01/20 08:42:16;;;;;;;1.67;1.50;;;5.20;99.90;;;;;;5042885;28;20248;-70
2022/01/20 08:44:44;;;;;;;3.05;1.92;;;5.20;99.90;;;;;;5027735;28;20271;-70
2022/01/20 08:47:17;;;;;;;3.53;1.80;;;5.20;99.90;;;;;;5028742;28;20225;-70
2022/01/20 08:49:49;;;;;;;3.10;2.38;;;5.20;99.90;;;;;;5019155;28;20237;-70
2022/01/20 08:52:18;;;;;;;5.18;1.83;;;5.20;99.90;;;;;;5030317;28;20212;-70
2022/01/20 08:54:52;;;;;;;3.85;2.08;;;5.20;99.90;;;;;;5013184;28;20220;-70
2022/01/20 08:57:56;;;;;;;3.70;1.65;;;5.20;99.90;;;;;;4996277;28;20235;-70
2022/01/20 09:00:27;;;;;;;4.07;2.15;;;5.20;99.90;;;;;;5012252;28;20221;-70
2022/01/20 09:03:01;;;;;;;3.42;1.52;;;5.20;99.90;;;;;;5010631;28;20293;-70
2022/01/20 09:05:30;;;;;;;4.55;2.00;;;5.20;99.90;;;;;;5025829;28;20214;-70
2022/01/20 09:08:18;;;;;;;4.90;2.13;;;5.20;99.90;;;;;;5026328;22;20699;-66
2022/01/20 09:10:56;;;;;;;5.80;2.72;;;5.20;99.90;;;;;;5008144;28;20271;-67
2022/01/20 09:16:19;;;;;;;2.40;1.35;;;5.20;99.90;;;;;;5005463;28;20293;-67
2022/01/20 09:18:57;;;;;;;4.10;1.65;;;5.20;99.90;;;;;;5009649;28;20694;-68
2022/01/20 09:21:28;;;;;;;4.93;2.70;;;5.20;99.90;;;;;;5011308;28;20283;-66
2022/01/20 09:23:59;;;;;;;4.72;1.98;;;5.20;99.90;;;;;;5007551;28;20209;-68
2022/01/20 09:26:28;;;;;;;2.42;1.65;;;5.20;99.90;;;;;;5013664;28;20189;-66
2022/01/20 09:28:58;;;;;;;3.55;1.75;;;5.20;99.90;;;;;;4999820;28;20209;-66
2022/01/20 09:31:32;;;;;;;1.75;1.40;;;5.20;99.90;;;;;;5008448;28;20230;-66
2022/01/20 09:34:02;;;;;;;5.93;2.08;;;5.20;99.90;;;;;;5008604;28;20209;-66
2022/01/20 09:36:34;;;;;;;8.32;2.67;;;5.20;99.90;;;;;;5009988;28;20591;-67
2022/01/20 09:39:03;;;;;;;5.03;2.53;;;5.20;99.90;;;;;;5008944;28;20221;-68
2022/01/20 09:41:49;;;;;;;8.07;2.90;;;5.20;99.90;;;;;;5011160;28;20216;-66
2022/01/20 09:44:22;;;;;;;8.23;2.83;;;5.30;99.90;;;;;;5016220;28;20281;-65
2022/01/20 09:46:50;;;;;;;5.78;2.30;;;5.30;99.90;;;;;;5009870;28;20245;-66
2022/01/20 09:49:33;;;;;;;6.90;2.40;;;5.30;99.90;;;;;;5004311;28;20226;-67
2022/01/20 09:52:06;;;;;;;10.70;2.97;;;5.30;99.90;;;;;;5025389;28;20221;-66
2022/01/20 09:54:45;;;;;;;13.40;2.88;;;5.20;99.90;;;;;;5011104;28;20228;-66
2022/01/20 09:57:20;;;;;;;8.07;2.72;;;5.30;99.90;;;;;;5027309;28;20275;-66
2022/01/20 09:59:50;;;;;;;8.95;3.90;;;5.20;99.90;;;;;;5026600;28;20299;-66
2022/01/20 10:02:19;;;;;;;10.98;2.55;;;5.20;99.90;;;;;;5025687;28;20614;-66
2022/01/20 10:04:56;;;;;;;3.47;2.08;;;5.20;99.90;;;;;;5026212;28;20224;-66
2022/01/20 10:07:35;;;;;;;6.20;1.95;;;5.20;99.90;;;;;;5026916;28;20236;-68
2022/01/20 10:10:16;;;;;;;10.65;2.60;;;5.20;99.90;;;;;;5026068;28;20903;-65
2022/01/20 10:13:21;;;;;;;6.68;1.92;;;5.20;99.90;;;;;;5010294;28;20198;-66
2022/01/20 10:16:07;;;;;;;10.63;2.55;;;5.20;99.90;;;;;;5009815;28;20280;-66
2022/01/20 10:18:48;;;;;;;8.02;2.88;;;5.20;99.90;;;;;;5007174;28;20288;-67
2022/01/20 10:21:19;;;;;;;8.88;2.40;;;5.20;99.90;;;;;;5007160;28;20273;-66
2022/01/20 10:23:55;;;;;;;6.40;2.33;;;5.20;99.90;;;;;;5008098;28;20269;-67
2022/01/20 10:26:44;;;;;;;11.27;2.10;;;5.20;99.90;;;;;;5000032;28;20214;-67
2022/01/20 10:29:14;;;;;;;11.30;2.80;;;5.20;99.90;;;;;;5006503;28;20278;-66
2022/01/20 10:31:45;;;;;;;6.53;2.03;;;5.20;99.90;;;;;;5010173;28;20214;-65
2022/01/20 10:34:22;;;;;;;5.63;2.38;;;5.20;99.90;;;;;;5010709;28;20255;-67
2022/01/20 10:36:55;;;;;;;4.28;1.80;;;5.20;99.90;;;;;;5010208;28;20569;-66
2022/01/20 10:39:34;;;;;;;6.68;1.77;;;5.20;99.90;;;;;;5009429;28;20308;-66
2022/01/20 10:42:06;;;;;;;4.18;2.17;;;5.20;99.90;;;;;;5013624;28;20284;-67
2022/01/20 10:44:44;;;;;;;7.88;2.20;;;5.20;99.90;;;;;;5009036;28;20232;-67
2022/01/20 10:47:26;;;;;;;10.55;2.88;;;5.20;99.90;;;;;;5009157;28;20267;-66
2022/01/20 10:49:56;;;;;;;5.28;1.67;;;5.20;99.90;;;;;;5008163;28;20224;-67
2022/01/20 10:52:35;;;;;;;4.65;1.67;;;5.20;99.90;;;;;;5009752;28;20221;-66
2022/01/20 10:55:06;;;;;;;5.60;3.05;;;5.20;99.90;;;;;;5008362;28;20642;-65
2022/01/20 10:57:43;;;;;;;10.25;1.92;;;5.20;99.90;;;;;;5009661;28;20636;-67
2022/01/20 11:00:16;;;;;;;7.50;2.65;;;5.20;99.90;;;;;;5009254;28;20229;-65
2022/01/20 11:02:55;;;;;;;7.30;2.00;;;5.20;99.90;;;;;;5009255;28;20696;-67
2022/01/20 11:05:29;;;;;;;2.50;1.83;;;5.20;99.90;;;;;;5008858;28;20221;-67
2022/01/20 11:08:01;;;;;;;5.80;2.40;;;5.20;99.90;;;;;;5009406;28;20275;-67
2022/01/20 11:10:29;;;;;;;4.03;1.67;;;5.20;99.90;;;;;;5008732;28;20225;-67
2022/01/20 11:13:27;;;;;;;3.80;1.77;;;5.20;99.90;;;;;;5006278;28;20209;-66
2022/01/20 11:15:57;;;;;;;9.02;2.30;;;5.20;99.90;;;;;;4989055;28;20419;-65
2022/01/20 11:18:28;;;;;;;6.10;1.60;;;5.20;99.90;;;;;;5009104;28;20221;-67
2022/01/20 11:20:59;;;;;;;3.47;1.92;;;5.20;99.90;;;;;;4989015;28;20230;-67
2022/01/20 11:23:39;;;;;;;5.20;2.75;;;5.20;99.90;;;;;;4997266;28;20197;-66
2022/01/20 11:26:26;;;;;;;5.95;1.77;;;5.20;99.90;;;;;;5009852;28;20232;-68
2022/01/20 11:29:04;;;;;;;4.22;1.40;;;5.20;99.90;;;;;;5009958;28;20209;-67
2022/01/20 11:31:53;;;;;;;4.32;1.67;;;5.20;99.90;;;;;;5009622;28;20687;-66
2022/01/20 11:35:03;;;;;;;4.47;1.58;;;5.20;99.90;;;;;;5024694;28;20360;-65
2022/01/20 11:37:34;;;;;;;5.07;1.92;;;5.20;99.90;;;;;;5010725;28;20280;-66
2022/01/20 11:40:18;;;;;;;3.80;2.28;;;5.20;99.90;;;;;;5012087;28;20251;-68
2022/01/20 11:42:59;;;;;;;3.58;1.30;;;5.20;99.90;;;;;;5011093;28;20293;-67
2022/01/20 11:45:32;;;;;;;4.03;1.98;;;5.20;99.90;;;;;;5009452;28;20271;-67
2022/01/20 11:48:15;;;;;;;4.60;1.45;;;5.20;99.90;;;;;;5009366;28;20232;-66
2022/01/20 11:50:44;;;;;;;3.95;1.50;;;5.20;99.90;;;;;;5009669;28;20221;-67
2022/01/20 11:53:13;;;;;;;5.63;2.28;;;5.20;99.90;;;;;;5010312;28;20197;-67
2022/01/20 11:55:50;;;;;;;5.88;2.03;;;5.20;99.90;;;;;;5009437;28;20257;-67
2022/01/20 11:58:20;;;;;;;5.85;2.22;;;5.20;99.90;;;;;;5009561;28;20222;-66
2022/01/20 12:00:58;;;;;;;7.57;2.47;;;5.20;99.90;;;;;;5009020;28;20256;-67
2022/01/20 12:03:28;;;;;;;3.85;2.00;;;5.20;99.90;;;;;;5009384;28;20231;-67
2022/01/20 12:06:04;;;;;;;5.07;2.05;;;5.20;99.90;;;;;;5024315;28;20236;-66
2022/01/20 12:08:54;;;;;;;3.88;1.73;;;5.20;99.90;;;;;;5009570;28;20796;-66
2022/01/20 12:11:34;;;;;;;4.20;1.90;;;5.20;99.90;;;;;;5008889;28;20249;-66
2022/01/20 12:14:06;;;;;;;3.92;1.35;;;5.20;99.90;;;;;;5008736;28;20201;-67
2022/01/20 12:16:36;;;;;;;2.42;1.50;;;5.20;99.90;;;;;;5009164;28;20248;-67
2022/01/20 12:19:08;;;;;;;4.22;1.52;;;5.20;99.90;;;;;;5009232;28;20196;-66
2022/01/20 12:21:39;;;;;;;3.53;1.73;;;5.20;99.90;;;;;;5024698;28;20193;-66
2022/01/20 12:24:07;;;;;;;5.65;1.73;;;5.20;99.90;;;;;;5008762;28;20221;-68
2022/01/20 12:26:37;;;;;;;7.53;1.65;;;5.20;99.90;;;;;;5008903;28;20214;-67
2022/01/20 12:29:07;;;;;;;10.55;1.80;;;5.20;99.90;;;;;;5024387;28;20202;-65
2022/01/20 12:31:47;;;;;;;5.03;2.00;;;5.20;99.90;;;;;;5009143;28;20255;-66
2022/01/20 12:34:15;;;;;;;5.43;2.13;;;5.20;99.90;;;;;;5008865;28;20304;-66
2022/01/20 12:36:51;;;;;;;2.67;1.48;;;5.20;99.90;;;;;;5009492;28;20675;-67
2022/01/20 12:39:25;;;;;;;2.45;1.25;;;5.20;99.90;;;;;;5008946;28;20663;-68
2022/01/20 12:42:00;;;;;;;2.38;1.20;;;5.20;99.90;;;;;;5009132;28;20213;-67
2022/01/20 12:44:40;;;;;;;4.10;1.80;;;5.20;99.90;;;;;;5008728;28;20290;-66
2022/01/20 12:47:08;;;;;;;3.33;1.10;;;5.20;99.90;;;;;;5008852;28;20213;-67
2022/01/20 12:49:37;;;;;;;2.95;1.52;;;5.20;99.90;;;;;;5023856;28;20699;-67
2022/01/20 12:52:11;;;;;;;3.45;1.77;;;5.20;99.90;;;;;;5009419;28;20193;-66
2022/01/20 12:54:39;;;;;;;3.28;1.52;;;5.20;99.90;;;;;;5008247;28;20217;-66
2022/01/20 12:57:11;;;;;;;5.93;1.98;;;5.20;99.90;;;;;;5004454;28;20256;-67
2022/01/20 12:59:42;;;;;;;4.50;1.65;;;5.20;99.90;;;;;;5006955;28;20572;-67
2022/01/20 13:02:12;;;;;;;5.28;1.75;;;5.20;99.90;;;;;;5005203;28;20707;-67
2022/01/20 13:04:41;;;;;;;4.60;2.10;;;5.20;99.90;;;;;;5001619;28;20256;-66
2022/01/20 13:07:15;;;;;;;10.95;2.55;;;5.20;99.90;;;;;;5007531;28;20245;-67
2022/01/20 13:09:47;;;;;;;7.55;2.03;;;5.20;99.90;;;;;;5005824;28;20225;-66
2022/01/20 13:12:20;;;;;;;5.82;2.40;;;5.20;99.90;;;;;;5007840;28;20212;-66
2022/01/20 13:14:50;;;;;;;7.22;2.22;;;5.20;99.90;;;;;;5010228;28;20317;-67
2022/01/20 13:17:22;;;;;;;4.05;1.60;;;5.20;99.90;;;;;;5009683;28;20245;-66
2022/01/20 13:19:54;;;;;;;4.68;1.60;;;5.20;99.90;;;;;;5007067;28;20275;-66
2022/01/20 13:22:28;;;;;;;5.22;1.80;;;5.20;99.90;;;;;;5009813;28;20637;-68
2022/01/20 13:25:05;;;;;;;7.70;2.22;;;5.20;99.90;;;;;;5011217;28;20283;-67
2022/01/20 13:27:35;;;;;;;3.20;1.48;;;5.20;99.90;;;;;;5010973;28;20288;-66
2022/01/20 13:30:05;;;;;;;5.68;2.60;;;5.20;99.90;;;;;;5010051;28;20698;-66
2022/01/20 13:32:33;;;;;;;9.02;2.33;;;5.20;99.90;;;;;;5002756;28;20190;-67
2022/01/20 13:35:03;;;;;;;2.97;1.35;;;5.20;99.90;;;;;;5011839;28;20600;-67
2022/01/20 13:37:31;;;;;;;5.07;1.70;;;5.20;99.90;;;;;;5011935;28;20214;-66
2022/01/20 13:40:00;;;;;;;7.20;1.60;;;5.20;99.90;;;;;;5007292;28;20708;-66
2022/01/20 13:42:38;;;;;;;5.28;2.90;;;5.20;99.90;;;;;;5006876;28;20337;-66
2022/01/20 13:45:13;;;;;;;6.20;1.60;;;5.20;99.90;;;;;;5011726;28;20283;-66
2022/01/20 13:47:53;;;;;;;4.18;1.33;;;5.20;99.90;;;;;;5010570;28;20228;-68
2022/01/20 13:50:24;;;;;;;7.00;1.70;;;5.20;99.90;;;;;;5011184;28;20275;-67
2022/01/20 13:52:53;;;;;;;4.63;1.40;;;5.20;99.90;;;;;;5011694;28;20185;-66
2022/01/20 13:55:25;;;;;;;4.32;1.70;;;5.20;99.90;;;;;;5006584;28;20741;-66
2022/01/20 13:57:53;;;;;;;3.45;1.35;;;5.20;99.90;;;;;;5011317;28;20774;-68
2022/01/20 14:00:26;;;;;;;3.42;1.30;;;5.20;99.90;;;;;;5010798;28;20321;-67
2022/01/20 14:02:54;;;;;;;9.45;2.30;;;5.20;99.90;;;;;;5010556;28;20242;-67
2022/01/20 14:05:26;;;;;;;6.82;2.00;;;5.20;99.90;;;;;;5011166;28;20221;-66
2022/01/20 14:07:54;;;;;;;5.45;1.45;;;5.20;99.90;;;;;;5009978;28;20687;-67
2022/01/20 14:10:22;;;;;;;4.38;1.50;;;5.20;99.90;;;;;;5008590;28;20249;-67
2022/01/20 14:12:50;;;;;;;3.55;1.60;;;5.20;99.90;;;;;;5008592;28;20678;-65
2022/01/20 14:15:20;;;;;;;5.65;1.58;;;5.30;99.90;;;;;;5010182;28;20312;-67